Terminal Aerodrome Forecast
Issued by NWS

Home | Current Version | Previous Version | Text Only | Print | Product List | Glossary On
Versions: 1 2 3 4 5 6 7 8 9 10 11 12 13 14 15 16 17 18 19 20
708
FTUS43 KAPX 302047 AAB
TAFAPN
TAF AMD
KAPN 302047Z 3021/3118 VRB05KT P6SM -TSRA SCT050 BKN060CB
     FM302200 28005KT P6SM VCSH SCT050 BKN200
     FM310300 34006KT P6SM VCSH SCT040 SCT130
     FM310700 31009KT P6SM FEW035
     FM311400 32010G15KT P6SM SCT035=

USA.gov is the U.S. government's official web portal to all federal, state and local government web resources and services.